Anthony, Texas
Current Conditions -  °F | °C
As of 3:58 AM on Monday 22 Dec 2014 (Local Time) from KBIF Reporting Station
Clear Clear  
Wind Chill: 52°   Ceiling: Unl
Heat Index: 52°   Visibility: 7mi
Dew Point: 30°   Wind: 8mph
Humidity: 43%   Direction: 240°WSW
Pressure: 29.89"   Gusts: NA
Location:  32°N, 106.61°W
Report Text: KBIF 221058Z AUTO 24007KT 7SM CLR 11/M01 A2989 RMK AO2 PK WND 27029/0959 SLP084 T01121011 $
Loading
Personal Weather Stations






























Interactive Weather Map New forecast layout! Learn more

10-Day Weather Forecast

Advertisements
Track Severe Weather on mobile